Time;durP1;ratioP1;P1;durP2;ratioP2;P2;SDS_P1;SDS_P2;PMS_P1;PMS_P2;Temp;Humidity;BMP_temperature;BMP_pressure;BME280_temperature;BME280_humidity;BME280_pressure;Samples;Min_cycle;Max_cycle;Signal;HPM_P1;HPM_P2
2023/01/01 00:02:01;;;;;;;12.30;9.07;;;;;;;6.07;100.00;62619.75;5065090;28;20220;-76
2023/01/01 00:04:29;;;;;;;16.85;8.88;;;;;;;5.99;100.00;62611.50;5065290;28;20197;-75
2023/01/01 00:06:56;;;;;;;14.75;8.18;;;;;;;6.01;100.00;62616.06;5064897;28;20224;-75
2023/01/01 00:12:07;;;;;;;10.43;8.48;;;;;;;6.06;100.00;62621.75;5066513;28;20236;-75
2023/01/01 00:14:35;;;;;;;14.30;9.73;;;;;;;6.07;100.00;62625.31;5064148;28;20197;-75
2023/01/01 00:17:02;;;;;;;12.50;8.15;;;;;;;6.11;100.00;62626.41;5064852;28;20225;-75
2023/01/01 00:19:29;;;;;;;15.02;8.43;;;;;;;6.07;100.00;62627.31;5064346;28;20213;-75
2023/01/01 00:21:56;;;;;;;15.35;9.32;;;;;;;6.10;100.00;62628.41;5065252;28;20240;-75
2023/01/01 00:24:23;;;;;;;14.43;9.25;;;;;;;6.11;100.00;62628.94;5066657;28;20285;-75
2023/01/01 00:26:50;;;;;;;10.80;8.43;;;;;;;6.05;100.00;62625.25;5065447;28;20217;-75
2023/01/01 00:29:16;;;;;;;11.85;7.22;;;;;;;6.13;100.00;62631.50;5064681;28;20205;-75
2023/01/01 00:31:45;;;;;;;8.40;6.35;;;;;;;6.09;100.00;62629.38;5065619;28;20229;-75
2023/01/01 00:34:13;;;;;;;9.80;6.20;;;;;;;6.01;100.00;62619.13;5065451;28;20268;-75
2023/01/01 00:36:40;;;;;;;10.35;5.32;;;;;;;5.92;100.00;62606.81;5064607;28;20240;-75
2023/01/01 00:39:07;;;;;;;14.38;6.88;;;;;;;5.89;100.00;62604.22;5067406;28;20235;-75
2023/01/01 00:41:34;;;;;;;8.05;6.07;;;;;;;5.89;100.00;62606.75;5067232;28;20263;-75
2023/01/01 00:44:01;;;;;;;11.93;6.47;;;;;;;5.84;100.00;62599.06;5065174;28;20235;-75
2023/01/01 00:46:28;;;;;;;10.23;7.53;;;;;;;5.83;100.00;62601.09;5063552;28;20239;-75
2023/01/01 00:48:56;;;;;;;8.50;6.35;;;;;;;5.80;100.00;62603.03;5065831;28;20197;-75
2023/01/01 00:51:23;;;;;;;8.52;5.90;;;;;;;5.69;100.00;62579.06;5065070;28;20415;-75
2023/01/01 00:53:50;;;;;;;6.35;5.53;;;;;;;5.60;100.00;62574.31;5063476;28;20413;-74
2023/01/01 00:56:17;;;;;;;10.20;6.07;;;;;;;5.61;100.00;62577.88;5064970;28;20213;-75
2023/01/01 00:58:44;;;;;;;15.75;8.63;;;;;;;5.56;100.00;62573.25;5067036;28;20189;-76
2023/01/01 01:01:11;;;;;;;10.43;7.40;;;;;;;5.58;100.00;62569.75;5065751;28;20229;-76
2023/01/01 01:03:41;;;;;;;15.00;9.30;;;;;;;5.55;100.00;62572.22;5063037;28;20205;-75
2023/01/01 01:06:12;;;;;;;13.13;7.82;;;;;;;5.52;100.00;62568.63;5064551;28;20529;-75
2023/01/01 01:08:41;;;;;;;15.85;10.32;;;;;;;5.49;100.00;62560.47;5064584;28;20194;-75
2023/01/01 01:11:10;;;;;;;17.88;9.85;;;;;;;5.47;100.00;62563.97;5064893;28;20217;-74
2023/01/01 01:13:38;;;;;;;15.15;9.38;;;;;;;5.44;100.00;62557.84;5064327;28;20509;-73
2023/01/01 01:16:09;;;;;;;10.43;6.18;;;;;;;5.42;100.00;62558.28;5049400;28;20527;-75
2023/01/01 01:18:36;;;;;;;10.50;8.73;;;;;;;5.36;100.00;62552.66;5044637;28;20190;-76
2023/01/01 01:21:03;;;;;;;9.85;6.68;;;;;;;5.33;100.00;62546.53;5053463;28;20236;-75
2023/01/01 01:23:32;;;;;;;10.45;7.45;;;;;;;5.29;100.00;62544.91;5064518;28;20205;-76
2023/01/01 01:26:07;;;;;;;37.42;20.85;;;;;;;5.23;100.00;62534.19;5064451;28;20233;-75
2023/01/01 01:28:34;;;;;;;17.27;9.43;;;;;;;5.20;100.00;62533.13;5065549;28;20242;-74
2023/01/01 01:31:01;;;;;;;7.72;6.72;;;;;;;5.16;100.00;62526.50;5065252;28;20541;-75
2023/01/01 01:33:29;;;;;;;7.40;5.30;;;;;;;5.11;100.00;62521.84;5063847;28;20193;-75
2023/01/01 01:35:56;;;;;;;10.13;6.00;;;;;;;5.09;100.00;62527.34;5065359;28;20252;-74
2023/01/01 01:38:23;;;;;;;8.32;5.80;;;;;;;5.06;100.00;62518.69;5064006;28;20201;-74
2023/01/01 01:40:51;;;;;;;6.32;5.55;;;;;;;5.05;100.00;62518.19;5063688;28;20287;-74
2023/01/01 01:43:23;;;;;;;7.75;5.70;;;;;;;5.09;100.00;62526.84;5064140;28;20232;-74
2023/01/01 01:45:53;;;;;;;8.50;6.18;;;;;;;5.12;100.00;62524.88;5065455;28;20288;-74
2023/01/01 01:48:20;;;;;;;10.13;6.47;;;;;;;5.11;100.00;62526.88;5064346;28;20201;-74
2023/01/01 01:50:48;;;;;;;5.47;4.97;;;;;;;5.15;100.00;62531.00;5062991;28;20217;-75
2023/01/01 01:53:22;;;;;;;7.90;4.90;;;;;;;5.14;100.00;62530.00;5063324;28;20201;-75
2023/01/01 01:55:56;;;;;;;9.40;5.40;;;;;;;5.12;100.00;62530.44;5064070;28;20273;-75
2023/01/01 01:58:25;;;;;;;7.22;5.18;;;;;;;5.05;100.00;62517.69;5064430;28;20264;-75
2023/01/01 02:00:54;;;;;;;4.50;4.10;;;;;;;5.15;100.00;62533.53;5064185;28;20398;-75
2023/01/01 02:03:25;;;;;;;4.38;3.90;;;;;;;5.12;100.00;62524.88;5066291;28;20406;-74
2023/01/01 02:05:54;;;;;;;6.15;5.57;;;;;;;5.10;100.00;62528.38;5064897;28;20252;-75
2023/01/01 02:08:21;;;;;;;6.85;4.97;;;;;;;5.07;100.00;62522.78;5062890;28;20257;-75
2023/01/01 02:10:48;;;;;;;5.63;5.10;;;;;;;5.09;100.00;62524.81;5064149;28;20534;-75
2023/01/01 02:13:17;;;;;;;5.82;4.75;;;;;;;5.03;100.00;62518.66;5065026;28;20197;-75
2023/01/01 02:15:55;;;;;;;10.95;5.68;;;;;;;5.07;100.00;62522.78;5065951;28;20224;-75
2023/01/01 02:18:26;;;;;;;5.72;5.10;;;;;;;4.93;100.00;62508.38;5069153;28;20193;-75
2023/01/01 02:20:59;;;;;;;7.65;6.03;;;;;;;4.90;100.00;62505.25;5067426;28;20229;-74
2023/01/01 02:23:52;;;;;;;8.68;7.10;;;;;;;4.97;100.00;62509.94;5067519;28;20502;-75
2023/01/01 02:26:39;;;;;;;29.30;18.52;;;;;;;4.89;100.00;62501.72;5046919;28;20221;-74
2023/01/01 02:29:15;;;;;;;47.60;27.98;;;;;;;4.73;100.00;62487.75;5059172;28;20201;-75
2023/01/01 02:31:45;;;;;;;62.78;35.67;;;;;;;4.74;100.00;62486.28;5068243;28;20236;-75
2023/01/01 02:34:17;;;;;;;69.50;37.03;;;;;;;4.72;100.00;62486.75;5066565;28;20247;-75
2023/01/01 02:36:53;;;;;;;65.28;35.05;;;;;;;4.69;100.00;62486.69;5068631;28;20217;-74
2023/01/01 02:39:23;;;;;;;48.00;24.33;;;;;;;4.71;100.00;62486.22;5065903;28;20189;-75
2023/01/01 02:41:55;;;;;;;28.95;14.85;;;;;;;4.63;100.00;62477.47;5065984;28;20237;-75
2023/01/01 02:44:26;;;;;;;18.23;11.02;;;;;;;4.58;100.00;62470.31;5066488;28;20200;-74
2023/01/01 02:46:53;;;;;;;23.42;11.52;;;;;;;4.51;100.00;62462.59;5066875;28;20240;-76
2023/01/01 02:49:20;;;;;;;16.73;10.50;;;;;;;4.53;100.00;62470.22;5067220;28;20197;-75
2023/01/01 02:52:02;;;;;;;16.58;10.48;;;;;;;4.55;100.00;62471.75;5066868;28;20542;-75
2023/01/01 02:54:37;;;;;;;15.55;8.70;;;;;;;4.68;100.00;62485.66;5066163;28;20190;-75
2023/01/01 02:57:09;;;;;;;11.07;6.97;;;;;;;4.78;100.00;62489.88;5066529;28;20549;-74
2023/01/01 03:02:46;;;;;;;11.43;7.10;;;;;;;4.85;100.00;62497.09;5046438;28;20232;-75
2023/01/01 03:05:18;;;;;;;9.23;7.10;;;;;;;4.84;100.00;62496.56;5045181;28;20197;-75
2023/01/01 03:07:59;;;;;;;7.45;5.38;;;;;;;4.90;100.00;62504.75;5047438;28;20194;-75
2023/01/01 03:10:33;;;;;;;10.57;6.53;;;;;;;4.88;100.00;62500.16;5061311;28;20260;-76
2023/01/01 03:13:06;;;;;;;12.57;7.43;;;;;;;4.91;100.00;62505.78;5066903;28;20185;-74
2023/01/01 03:15:45;;;;;;;11.35;5.90;;;;;;;4.78;100.00;62489.88;5067521;28;20220;-74
2023/01/01 03:18:17;;;;;;;6.15;5.55;;;;;;;4.76;100.00;62490.88;5065846;28;20228;-74
2023/01/01 03:20:48;;;;;;;9.82;5.95;;;;;;;4.72;100.00;62489.78;5065312;28;20225;-74
2023/01/01 03:23:34;;;;;;;9.98;7.10;;;;;;;4.75;100.00;62484.78;5066085;28;20513;-75
2023/01/01 03:26:06;;;;;;;7.85;5.93;;;;;;;4.69;100.00;62483.66;5066410;28;20225;-75
2023/01/01 03:28:36;;;;;;;5.55;5.03;;;;;;;4.65;100.00;62477.00;5066712;28;20220;-75
2023/01/01 03:31:09;;;;;;;5.75;4.88;;;;;;;4.65;100.00;62482.56;5065813;28;20571;-74
2023/01/01 03:33:40;;;;;;;17.08;10.30;;;;;;;4.66;100.00;62480.56;5065236;28;20186;-76
2023/01/01 03:36:13;;;;;;;18.10;11.20;;;;;;;4.66;100.00;62478.03;5064184;28;20225;-75
2023/01/01 03:38:44;;;;;;;58.92;31.35;;;;;;;4.65;100.00;62477.00;5066521;28;20204;-75
2023/01/01 03:41:15;;;;;;;53.20;27.48;;;;;;;4.65;100.00;62479.53;5068789;28;20239;-76
2023/01/01 03:43:48;;;;;;;22.05;14.05;;;;;;;4.62;100.00;62476.94;5067877;28;20185;-74
2023/01/01 03:46:20;;;;;;;33.45;18.83;;;;;;;4.62;100.00;62476.94;5065485;28;20217;-74
2023/01/01 03:48:56;;;;;;;37.95;21.65;;;;;;;4.62;100.00;62471.41;5065093;28;20204;-74
2023/01/01 03:51:32;;;;;;;29.33;17.80;;;;;;;4.63;100.00;62475.47;5065138;28;20221;-76
2023/01/01 03:54:07;;;;;;;52.08;26.35;;;;;;;4.63;100.00;62474.94;5065482;28;20239;-75
2023/01/01 03:56:45;;;;;;;56.35;27.80;;;;;;;4.64;100.00;62473.97;5046565;28;20245;-75
2023/01/01 03:59:21;;;;;;;46.72;24.52;;;;;;;4.62;100.00;62471.91;5047756;28;20205;-75
2023/01/01 04:01:53;;;;;;;52.22;29.45;;;;;;;4.58;100.00;62470.31;5045107;28;20237;-75
2023/01/01 04:04:20;;;;;;;48.45;26.20;;;;;;;4.57;100.00;62471.31;5055652;28;20198;-75
2023/01/01 04:06:47;;;;;;;47.85;24.13;;;;;;;4.52;100.00;62464.13;5065141;28;20227;-74
2023/01/01 04:09:21;;;;;;;49.70;28.13;;;;;;;4.47;100.00;62461.00;5064786;28;20205;-74
2023/01/01 04:12:02;;;;;;;46.58;24.80;;;;;;;4.47;100.00;62458.47;5065283;28;20270;-74
2023/01/01 04:14:31;;;;;;;33.97;20.42;;;;;;;4.46;100.00;62457.44;5068002;28;20531;-76
2023/01/01 04:17:00;;;;;;;32.63;17.92;;;;;;;4.47;100.00;62461.50;5067231;28;20217;-73
2023/01/01 04:19:27;;;;;;;24.85;13.20;;;;;;;4.47;100.00;62458.47;5065212;28;20217;-75
2023/01/01 04:21:55;;;;;;;12.80;7.53;;;;;;;4.47;100.00;62461.50;5064165;28;20256;-75
2023/01/01 04:24:22;;;;;;;6.68;5.32;;;;;;;4.57;100.00;62468.78;5064773;28;20232;-74
2023/01/01 04:26:49;;;;;;;15.52;9.20;;;;;;;4.54;100.00;62463.16;5065121;28;20326;-74
2023/01/01 04:29:16;;;;;;;24.90;12.55;;;;;;;4.49;100.00;62458.00;5066064;28;20440;-75
2023/01/01 04:31:43;;;;;;;12.77;8.38;;;;;;;4.48;100.00;62462.56;5063133;28;20391;-75
2023/01/01 04:34:11;;;;;;;50.92;26.02;;;;;;;4.47;100.00;62458.47;5064031;28;20205;-75
2023/01/01 04:36:39;;;;;;;45.88;21.17;;;;;;;4.46;100.00;62457.44;5064102;28;20229;-75
2023/01/01 04:39:06;;;;;;;50.85;24.95;;;;;;;4.47;100.00;62455.94;5064486;28;20197;-75
2023/01/01 04:41:33;;;;;;;59.80;29.30;;;;;;;4.39;100.00;62450.75;5064537;28;20237;-75
2023/01/01 04:44:00;;;;;;;56.88;29.38;;;;;;;4.36;100.00;62445.16;5064726;28;20211;-75
2023/01/01 04:46:27;;;;;;;47.33;25.15;;;;;;;4.37;100.00;62443.16;5065330;28;20217;-74
2023/01/01 04:48:54;;;;;;;42.20;21.90;;;;;;;4.31;100.00;62445.06;5064351;28;20223;-74
2023/01/01 04:51:22;;;;;;;46.38;24.90;;;;;;;4.29;100.00;62445.00;5063855;28;20560;-74
2023/01/01 04:53:49;;;;;;;36.08;20.35;;;;;;;4.24;100.00;62432.81;5064194;28;20205;-75
2023/01/01 04:56:18;;;;;;;44.72;24.73;;;;;;;4.18;100.00;62429.16;5064593;28;20225;-75
2023/01/01 04:58:46;;;;;;;38.55;23.38;;;;;;;4.17;100.00;62430.66;5063728;28;20264;-74
2023/01/01 05:01:18;;;;;;;36.80;19.95;;;;;;;4.17;100.00;62427.63;5064014;28;20213;-74
2023/01/01 05:03:46;;;;;;;44.50;23.83;;;;;;;4.13;100.00;62423.50;5064943;28;20423;-74
2023/01/01 05:06:15;;;;;;;40.33;20.77;;;;;;;4.13;100.00;62424.00;5064652;28;20303;-74
2023/01/01 05:08:45;;;;;;;28.42;15.40;;;;;;;4.11;100.00;62419.44;5064151;28;20209;-74
2023/01/01 05:11:15;;;;;;;37.53;20.10;;;;;;;4.11;100.00;62419.44;5065013;28;20239;-75
2023/01/01 05:13:44;;;;;;;20.52;11.15;;;;;;;4.09;100.00;62419.88;5064145;28;20217;-74
2023/01/01 05:16:13;;;;;;;17.05;10.88;;;;;;;4.11;100.00;62421.44;5059131;28;20266;-74
2023/01/01 05:18:41;;;;;;;16.02;10.43;;;;;;;4.13;100.00;62423.50;5063835;28;20244;-74
2023/01/01 05:21:11;;;;;;;14.45;9.15;;;;;;;4.16;100.00;62429.09;5065377;28;20583;-74
2023/01/01 05:23:38;;;;;;;14.73;9.93;;;;;;;4.19;100.00;62432.72;5063698;28;20201;-75
2023/01/01 05:26:13;;;;;;;11.95;8.10;;;;;;;4.14;100.00;62424.53;5073299;28;20225;-74
2023/01/01 05:28:41;;;;;;;16.38;10.30;;;;;;;4.04;100.00;62414.25;5084955;28;20196;-75
2023/01/01 05:31:11;;;;;;;16.75;9.73;;;;;;;4.18;100.00;62431.66;5066423;28;20225;-75
2023/01/01 05:33:37;;;;;;;14.02;9.27;;;;;;;4.18;100.00;62428.63;5064013;28;20208;-75
2023/01/01 05:36:06;;;;;;;18.40;10.23;;;;;;;4.13;100.00;62423.50;5065578;28;20300;-74
2023/01/01 05:38:33;;;;;;;13.95;9.02;;;;;;;4.12;100.00;62422.47;5067060;28;20201;-75
2023/01/01 05:41:06;;;;;;;25.70;14.30;;;;;;;4.10;100.00;62420.41;5066064;28;20479;-74
2023/01/01 05:43:34;;;;;;;65.70;34.13;;;;;;;4.11;100.00;62419.44;5069024;28;20220;-75
2023/01/01 05:46:02;;;;;;;53.65;28.90;;;;;;;4.13;100.00;62423.50;5064721;28;20298;-74
2023/01/01 05:48:29;;;;;;;66.97;34.33;;;;;;;4.18;100.00;62431.66;5064053;28;20220;-75
2023/01/01 05:51:02;;;;;;;29.70;17.13;;;;;;;4.16;100.00;62426.59;5068477;28;20247;-74
2023/01/01 05:53:29;;;;;;;21.05;12.15;;;;;;;4.15;100.00;62426.06;5069671;28;20208;-75
2023/01/01 05:55:56;;;;;;;26.55;15.23;;;;;;;4.14;100.00;62422.50;5069789;28;20221;-74
2023/01/01 05:58:23;;;;;;;35.97;18.52;;;;;;;4.18;100.00;62426.63;5069085;28;20251;-75
2023/01/01 06:00:52;;;;;;;27.95;16.27;;;;;;;4.15;100.00;62423.56;5066837;28;20221;-74
2023/01/01 06:03:18;;;;;;;41.25;23.10;;;;;;;4.16;100.00;62426.59;5068282;28;20228;-74
2023/01/01 06:05:46;;;;;;;70.20;33.50;;;;;;;4.10;100.00;62420.41;5068233;28;20217;-73
2023/01/01 06:08:13;;;;;;;69.40;33.65;;;;;;;4.17;100.00;62425.63;5068801;28;20255;-76
2023/01/01 06:10:40;;;;;;;80.53;44.03;;;;;;;4.20;100.00;62430.69;5068317;28;20222;-74
2023/01/01 06:13:07;;;;;;;145.18;71.57;;;;;;;4.21;100.00;62432.22;5068138;28;20198;-75
2023/01/01 06:15:34;;;;;;;93.78;44.88;;;;;;;4.23;100.00;62433.78;5067346;28;20194;-74
2023/01/01 06:18:02;;;;;;;68.93;34.33;;;;;;;4.26;100.00;62437.38;5067921;28;20230;-74
2023/01/01 06:20:29;;;;;;;53.70;28.58;;;;;;;4.16;100.00;62429.09;5066916;28;20231;-74
2023/01/01 06:22:56;;;;;;;51.58;24.33;;;;;;;4.28;100.00;62441.97;5068065;28;20229;-75
2023/01/01 06:25:23;;;;;;;51.42;28.63;;;;;;;4.31;100.00;62445.06;5067968;28;20220;-74
2023/01/01 06:27:50;;;;;;;59.25;30.10;;;;;;;4.35;100.00;62451.69;5067034;28;20223;-75
2023/01/01 06:30:19;;;;;;;60.35;30.08;;;;;;;4.42;100.00;62456.38;5066136;28;20514;-75
2023/01/01 06:32:46;;;;;;;67.85;32.92;;;;;;;4.44;100.00;62457.91;5067739;28;20205;-75
2023/01/01 06:35:15;;;;;;;60.22;31.95;;;;;;;4.49;100.00;62463.56;5066424;28;20522;-74
2023/01/01 06:37:42;;;;;;;50.67;28.17;;;;;;;4.50;100.00;62466.63;5065536;28;20235;-74
2023/01/01 06:40:10;;;;;;;64.60;31.83;;;;;;;4.42;100.00;62453.31;5067700;28;20253;-75
2023/01/01 06:42:36;;;;;;;57.00;31.02;;;;;;;4.49;100.00;62463.06;5067326;28;20239;-73
2023/01/01 06:45:03;;;;;;;56.92;31.38;;;;;;;4.58;100.00;62472.31;5067887;28;20201;-75
2023/01/01 06:47:34;;;;;;;51.17;28.75;;;;;;;4.60;100.00;62474.91;5066178;28;20550;-75
2023/01/01 06:50:01;;;;;;;54.45;28.95;;;;;;;4.73;100.00;62490.28;5066080;28;20494;-74
2023/01/01 06:52:30;;;;;;;50.03;27.08;;;;;;;4.82;100.00;62497.03;5066273;28;20253;-74
2023/01/01 06:54:57;;;;;;;50.35;28.10;;;;;;;4.89;100.00;62503.72;5066743;28;20243;-75
2023/01/01 06:57:24;;;;;;;45.53;23.42;;;;;;;4.93;100.00;62505.84;5066850;28;20224;-75
2023/01/01 06:59:51;;;;;;;56.92;28.77;;;;;;;4.96;100.00;62513.44;5066403;28;20384;-74
2023/01/01 07:02:21;;;;;;;64.20;31.23;;;;;;;5.00;100.00;62513.06;5066187;28;20233;-75
2023/01/01 07:04:48;;;;;;;56.47;29.63;;;;;;;5.02;100.00;62519.63;5064277;28;20213;-74
2023/01/01 07:07:14;;;;;;;53.67;29.73;;;;;;;5.01;100.00;62511.56;5065561;28;20538;-74
2023/01/01 07:09:43;;;;;;;57.95;33.92;;;;;;;4.99;100.00;62511.50;5065644;28;20215;-75
2023/01/01 07:12:09;;;;;;;66.60;35.45;;;;;;;4.92;100.00;62504.28;5065970;28;20553;-74
2023/01/01 07:14:36;;;;;;;59.83;34.20;;;;;;;5.08;100.00;62526.31;5066596;28;20239;-75
2023/01/01 07:17:03;;;;;;;59.25;33.63;;;;;;;5.19;100.00;62532.63;5065666;28;20549;-74
2023/01/01 07:19:30;;;;;;;61.67;32.70;;;;;;;5.37;100.00;62553.66;5065369;28;20197;-74
2023/01/01 07:21:57;;;;;;;60.60;34.78;;;;;;;5.76;100.00;62593.34;5064883;28;20221;-75
2023/01/01 07:24:24;;;;;;;61.40;32.75;;;;;;;6.14;100.00;62627.47;5064955;28;20264;-75
2023/01/01 07:26:52;;;;;;;66.88;37.42;;;;;;;6.43;100.00;62664.97;5065245;28;20219;-75
2023/01/01 07:29:19;;;;;;;90.60;48.30;;;;;;;6.54;100.00;62671.22;5066426;28;20232;-74
2023/01/01 07:31:45;;;;;;;71.30;40.22;;;;;;;6.62;100.00;62676.97;5066342;28;20216;-75
2023/01/01 07:34:15;;;;;;;64.15;36.80;;;;;;;6.62;100.00;62681.50;5064896;28;20205;-76
2023/01/01 07:36:42;;;;;;;58.63;33.85;;;;;;;6.67;100.00;62684.66;5064569;28;20224;-74
2023/01/01 07:39:09;;;;;;;54.40;32.15;;;;;;;6.74;100.00;62691.34;5064773;28;20189;-75
2023/01/01 07:41:36;;;;;;;56.50;31.70;;;;;;;6.79;100.00;62693.97;5065126;28;20285;-75
2023/01/01 07:44:05;;;;;;;75.20;41.97;;;;;;;6.85;100.00;62702.69;5065083;28;20229;-75
2023/01/01 07:46:34;;;;;;;78.13;43.08;;;;;;;6.70;100.00;62689.75;5066047;28;20224;-75
2023/01/01 07:49:01;;;;;;;73.95;39.75;;;;;;;6.70;100.00;62687.75;5065563;28;20550;-75
2023/01/01 07:51:28;;;;;;;76.55;39.95;;;;;;;6.55;100.00;62677.34;5064211;28;20284;-75
2023/01/01 07:53:55;;;;;;;72.35;40.55;;;;;;;6.48;100.00;62667.06;5063903;28;20227;-75
2023/01/01 07:56:22;;;;;;;72.72;40.40;;;;;;;6.43;100.00;62659.91;5065432;28;20223;-74
2023/01/01 07:58:49;;;;;;;73.13;41.97;;;;;;;6.56;100.00;62672.78;5065599;28;20206;-76
2023/01/01 08:01:17;;;;;;;79.45;42.88;;;;;;;6.57;100.00;62678.88;5065403;28;20259;-75
2023/01/01 08:03:44;;;;;;;78.55;41.85;;;;;;;6.63;100.00;62680.00;5064908;28;20283;-75
2023/01/01 08:06:13;;;;;;;85.97;42.47;;;;;;;6.64;100.00;62681.03;5065393;28;20224;-75
2023/01/01 08:08:40;;;;;;;68.40;39.15;;;;;;;6.74;100.00;62696.41;5063714;28;20201;-75
2023/01/01 08:11:08;;;;;;;79.78;39.45;;;;;;;6.54;100.00;62673.75;5066212;28;20213;-75
2023/01/01 08:13:35;;;;;;;78.60;39.72;;;;;;;6.78;100.00;62698.00;5063998;28;20201;-74
2023/01/01 08:16:01;;;;;;;73.07;38.33;;;;;;;6.85;100.00;62702.69;5063136;28;20546;-74
2023/01/01 08:18:30;;;;;;;84.20;42.50;;;;;;;6.90;100.00;62705.81;5063650;28;20209;-75
2023/01/01 08:20:57;;;;;;;77.38;44.35;;;;;;;6.77;100.00;62699.50;5065858;28;20217;-76
2023/01/01 08:23:23;;;;;;;76.20;41.72;;;;;;;6.88;100.00;62706.31;5064963;28;20217;-75
2023/01/01 08:25:50;;;;;;;68.90;38.47;;;;;;;6.87;100.00;62702.75;5064766;28;20225;-74
2023/01/01 08:28:17;;;;;;;69.60;39.20;;;;;;;7.01;100.00;62721.72;5065644;28;20376;-75
2023/01/01 08:30:44;;;;;;;75.32;37.63;;;;;;;7.16;100.00;62736.69;5063584;28;20456;-75
2023/01/01 08:33:11;;;;;;;69.22;37.88;;;;;;;7.17;100.00;62738.25;5063420;28;20256;-73
2023/01/01 08:35:42;;;;;;;62.95;35.55;;;;;;;7.19;100.00;62734.72;5063387;28;20201;-75
2023/01/01 08:38:11;;;;;;;65.00;35.05;;;;;;;7.25;100.00;62745.97;5063733;28;20499;-75
2023/01/01 08:40:38;;;;;;;61.47;34.10;;;;;;;7.24;100.00;62739.88;5065153;28;20204;-74
2023/01/01 08:43:05;;;;;;;61.88;33.75;;;;;;;7.37;100.00;62758.88;5064152;28;20233;-75
2023/01/01 08:45:32;;;;;;;53.30;31.85;;;;;;;7.31;100.00;62752.16;5065060;28;20202;-74
2023/01/01 08:47:59;;;;;;;56.65;31.23;;;;;;;7.32;100.00;62748.66;5064033;28;20264;-75
2023/01/01 08:50:26;;;;;;;66.05;35.53;;;;;;;7.13;100.00;62731.56;5062957;28;20201;-75
2023/01/01 08:52:54;;;;;;;55.75;34.33;;;;;;;7.26;100.00;62744.47;5062463;28;20193;-74
2023/01/01 08:55:21;;;;;;;57.78;32.42;;;;;;;7.21;100.00;62742.38;5065537;28;20219;-74
2023/01/01 08:57:48;;;;;;;60.55;29.48;;;;;;;7.31;100.00;62749.63;5064800;28;20201;-75
2023/01/01 09:00:16;;;;;;;57.75;32.00;;;;;;;7.43;100.00;62762.03;5064294;28;20377;-75
2023/01/01 09:02:42;;;;;;;60.83;31.35;;;;;;;7.43;100.00;62760.00;5071494;28;20235;-75
2023/01/01 09:05:10;;;;;;;54.78;31.10;;;;;;;7.41;100.00;62757.94;5083745;28;20205;-74
2023/01/01 09:07:37;;;;;;;49.25;27.08;;;;;;;7.51;100.00;62772.81;5083921;28;20288;-75
2023/01/01 09:10:07;;;;;;;53.00;28.90;;;;;;;7.48;100.00;62769.72;5083704;28;20490;-76
2023/01/01 09:12:34;;;;;;;58.13;30.80;;;;;;;7.56;100.00;62775.94;5069809;28;20221;-75
2023/01/01 09:15:01;;;;;;;52.92;30.85;;;;;;;7.71;100.00;62798.53;5064314;28;20243;-74
2023/01/01 09:17:28;;;;;;;55.20;30.45;;;;;;;7.58;100.00;62778.00;5064321;28;20263;-76
2023/01/01 09:19:55;;;;;;;56.67;32.30;;;;;;;7.49;100.00;62768.72;5062610;28;20335;-75
2023/01/01 09:22:22;;;;;;;56.35;31.20;;;;;;;7.66;100.00;62781.19;5063670;28;20217;-75
2023/01/01 09:24:49;;;;;;;52.97;29.63;;;;;;;7.76;100.00;62794.06;5068541;28;20201;-75
2023/01/01 09:27:17;;;;;;;55.35;31.33;;;;;;;7.82;100.00;62807.84;5068736;28;20225;-76
2023/01/01 09:29:44;;;;;;;51.30;29.48;;;;;;;7.88;100.00;62811.00;5066930;28;20247;-76
2023/01/01 09:32:11;;;;;;;52.63;29.42;;;;;;;7.95;100.00;62818.75;5069929;28;20231;-74
2023/01/01 09:34:38;;;;;;;51.25;28.63;;;;;;;7.96;100.00;62811.66;5068222;28;20201;-76
2023/01/01 09:37:06;;;;;;;48.15;28.65;;;;;;;8.25;100.00;62843.66;5068682;28;20572;-76
2023/01/01 09:39:33;;;;;;;58.22;29.73;;;;;;;8.19;100.00;62841.00;5066486;28;20208;-75
2023/01/01 09:42:15;;;;;;;52.42;29.77;;;;;;;8.30;100.00;62854.38;5067755;28;20428;-75
2023/01/01 09:45:11;;;;;;;55.25;28.55;;;;;;;8.51;100.00;62876.09;5069216;28;20254;-75
2023/01/01 09:47:41;;;;;;;51.47;29.27;;;;;;;8.66;99.85;62886.00;5068060;28;20221;-75
2023/01/01 09:50:20;;;;;;;53.42;28.45;;;;;;;8.78;99.22;62906.53;5068847;28;20354;-74
2023/01/01 09:52:55;;;;;;;49.30;28.77;;;;;;;8.88;98.71;62911.25;5067478;28;20193;-74
2023/01/01 09:55:51;;;;;;;55.25;30.23;;;;;;;8.77;97.93;62904.97;5067299;28;20496;-75
2023/01/01 09:58:22;;;;;;;48.55;28.00;;;;;;;8.74;98.65;62902.41;5023910;28;20273;-75
2023/01/01 10:00:54;;;;;;;50.35;30.15;;;;;;;8.85;98.52;62910.72;5060715;28;20395;-76
2023/01/01 10:03:30;;;;;;;57.22;29.95;;;;;;;9.17;97.49;62946.31;5067655;28;20541;-76
2023/01/01 10:06:05;;;;;;;60.17;31.52;;;;;;;9.29;95.81;62956.19;5066824;28;20221;-75
2023/01/01 10:08:42;;;;;;;54.95;30.67;;;;;;;9.39;94.12;62966.50;5069363;28;20197;-75
2023/01/01 10:11:16;;;;;;;52.33;30.35;;;;;;;9.51;93.31;62976.38;5067229;28;20278;-75
2023/01/01 10:13:45;;;;;;;59.00;32.78;;;;;;;9.62;92.62;62990.31;5069964;28;20204;-75
2023/01/01 10:16:22;;;;;;;57.58;31.17;;;;;;;9.85;91.85;63016.66;5067318;28;20416;-75
2023/01/01 10:18:53;;;;;;;47.40;29.42;;;;;;;9.90;89.76;63018.75;5066472;28;20224;-75
2023/01/01 10:21:24;;;;;;;56.15;32.55;;;;;;;9.87;88.64;63011.06;5066828;28;20357;-74
2023/01/01 10:23:56;;;;;;;162.13;144.43;;;;;;;9.90;88.69;63016.72;5066229;28;20217;-75
2023/01/01 10:26:28;;;;;;;52.40;30.65;;;;;;;10.01;88.34;63028.09;5062922;28;20486;-75
2023/01/01 10:29:01;;;;;;;54.03;31.23;;;;;;;10.12;88.01;63042.03;5064879;28;20193;-75
2023/01/01 10:31:33;;;;;;;53.88;34.83;;;;;;;10.20;86.77;63047.78;5067028;28;20292;-75
2023/01/01 10:34:12;;;;;;;53.67;31.17;;;;;;;10.26;85.76;63053.47;5054904;28;20224;-75
2023/01/01 10:36:39;;;;;;;133.05;114.65;;;;;;;10.41;85.47;63069.50;5064709;28;20287;-74
2023/01/01 10:39:07;;;;;;;55.33;30.35;;;;;;;10.45;84.72;63071.09;5057393;28;20216;-77
2023/01/01 10:41:34;;;;;;;55.63;30.40;;;;;;;10.45;84.73;63073.13;5057608;28;20275;-76
2023/01/01 10:44:02;;;;;;;52.88;30.95;;;;;;;10.54;83.81;63084.47;5068277;28;20225;-75
2023/01/01 10:46:31;;;;;;;54.80;32.30;;;;;;;10.51;83.66;63081.88;5067398;28;20229;-75
2023/01/01 10:49:09;;;;;;;49.63;29.17;;;;;;;10.48;84.26;63079.28;5067216;28;20189;-75
2023/01/01 10:51:37;;;;;;;49.13;30.45;;;;;;;10.60;83.54;63090.66;5060239;28;20267;-76
2023/01/01 10:54:05;;;;;;;54.45;28.77;;;;;;;10.71;83.08;63099.53;5067243;28;20244;-77
2023/01/01 10:56:42;;;;;;;51.72;31.60;;;;;;;10.80;82.85;63108.84;5064826;28;20219;-77
2023/01/01 10:59:34;;;;;;;50.97;31.00;;;;;;;10.72;82.50;63101.06;5056117;28;20262;-77
2023/01/01 11:02:17;;;;;;;57.70;33.80;;;;;;;10.90;82.71;63121.72;5066610;28;20218;-77
2023/01/01 11:04:48;;;;;;;56.55;33.50;;;;;;;10.99;81.55;63126.47;5066645;28;20235;-76
2023/01/01 11:07:22;;;;;;;53.75;31.92;;;;;;;11.00;81.40;63132.09;5061982;28;20289;-77
2023/01/01 11:09:50;;;;;;;53.38;31.85;;;;;;;11.14;80.51;63142.00;5058343;28;20211;-75
2023/01/01 11:12:23;;;;;;;51.08;31.50;;;;;;;11.23;79.87;63151.31;5061247;28;20232;-79
2023/01/01 11:14:52;;;;;;;50.75;32.10;;;;;;;11.29;79.57;63160.09;5058140;28;20193;-76
2023/01/01 11:17:26;;;;;;;57.50;31.77;;;;;;;11.26;79.50;63153.91;5065972;28;20272;-77
2023/01/01 11:19:54;;;;;;;48.50;31.67;;;;;;;11.39;79.42;63169.91;5055487;28;20181;-78
2023/01/01 11:22:42;;;;;;;50.67;30.88;;;;;;;11.51;79.92;63185.41;5058801;28;20243;-77
2023/01/01 11:25:21;;;;;;;52.58;31.85;;;;;;;11.42;77.98;63171.00;5051711;28;20230;-77
2023/01/01 11:27:49;;;;;;;60.40;34.30;;;;;;;11.56;78.48;63190.09;5055483;28;20510;-77
2023/01/01 11:30:25;;;;;;;46.83;30.13;;;;;;;11.62;78.28;63196.81;5066283;28;20213;-77
2023/01/01 11:33:01;;;;;;;48.63;30.40;;;;;;;11.60;77.60;63194.22;5049803;28;20197;-77
2023/01/01 11:35:31;;;;;;;46.95;29.08;;;;;;;11.47;78.09;63181.28;5065732;28;20388;-77
2023/01/01 11:37:59;;;;;;;45.33;28.48;;;;;;;11.36;78.64;63167.34;5067676;28;20197;-77
2023/01/01 11:40:33;;;;;;;44.58;29.42;;;;;;;11.37;79.26;63167.88;5066399;28;20253;-78